sensor_id;sensor_type;location;lat;lon;timestamp;temperature;humidity
17529;DHT22;8882;53.192;8.184;2022-09-01T04:32:56;14.60;99.90
17529;DHT22;8882;53.192;8.184;2022-09-01T04:35:22;14.60;99.90
17529;DHT22;8882;53.192;8.184;2022-09-01T04:37:52;14.60;99.90
17529;DHT22;8882;53.192;8.184;2022-09-01T04:40:18;14.60;99.90
17529;DHT22;8882;53.192;8.184;2022-09-01T04:42:48;14.60;99.90
17529;DHT22;8882;53.192;8.184;2022-09-01T04:45:14;14.50;99.90
17529;DHT22;8882;53.192;8.184;2022-09-01T04:47:40;14.50;99.90
17529;DHT22;8882;53.192;8.184;2022-09-01T04:50:07;14.50;99.90
17529;DHT22;8882;53.192;8.184;2022-09-01T04:52:45;14.50;99.90
17529;DHT22;8882;53.192;8.184;2022-09-01T04:55:13;14.50;99.90
17529;DHT22;8882;53.192;8.184;2022-09-01T04:57:43;14.50;99.90
17529;DHT22;8882;53.192;8.184;2022-09-01T05:00:14;14.50;99.90
17529;DHT22;8882;53.192;8.184;2022-09-01T05:02:53;14.60;99.90
17529;DHT22;8882;53.192;8.184;2022-09-01T05:05:20;14.50;99.90
17529;DHT22;8882;53.192;8.184;2022-09-01T05:07:47;14.50;99.90
17529;DHT22;8882;53.192;8.184;2022-09-01T05:10:18;14.50;99.90
17529;DHT22;8882;53.192;8.184;2022-09-01T05:12:44;14.50;99.90
17529;DHT22;8882;53.192;8.184;2022-09-01T05:15:12;14.50;99.90
17529;DHT22;8882;53.192;8.184;2022-09-01T05:17:38;14.50;99.90
17529;DHT22;8882;53.192;8.184;2022-09-01T05:20:04;14.40;99.90
17529;DHT22;8882;53.192;8.184;2022-09-01T05:22:31;14.40;99.90
17529;DHT22;8882;53.192;8.184;2022-09-01T05:25:00;14.40;99.90
17529;DHT22;8882;53.192;8.184;2022-09-01T05:27:36;14.50;99.90
17529;DHT22;8882;53.192;8.184;2022-09-01T05:30:05;14.50;99.90
17529;DHT22;8882;53.192;8.184;2022-09-01T05:32:33;14.50;99.90
17529;DHT22;8882;53.192;8.184;2022-09-01T05:35:04;14.50;99.90
17529;DHT22;8882;53.192;8.184;2022-09-01T05:37:34;14.70;99.90
17529;DHT22;8882;53.192;8.184;2022-09-01T05:40:00;14.70;99.90
17529;DHT22;8882;53.192;8.184;2022-09-01T05:42:26;14.80;99.90
17529;DHT22;8882;53.192;8.184;2022-09-01T05:44:53;14.80;99.90
17529;DHT22;8882;53.192;8.184;2022-09-01T05:47:18;14.80;99.90
17529;DHT22;8882;53.192;8.184;2022-09-01T05:49:46;14.90;99.90
17529;DHT22;8882;53.192;8.184;2022-09-01T05:52:13;14.90;99.90
17529;DHT22;8882;53.192;8.184;2022-09-01T05:54:39;14.90;99.90
17529;DHT22;8882;53.192;8.184;2022-09-01T05:57:05;14.90;99.90
17529;DHT22;8882;53.192;8.184;2022-09-01T05:59:31;14.90;99.90
17529;DHT22;8882;53.192;8.184;2022-09-01T06:01:58;14.90;99.90
17529;DHT22;8882;53.192;8.184;2022-09-01T06:04:25;15.00;99.90
17529;DHT22;8882;53.192;8.184;2022-09-01T06:06:51;14.90;99.90
17529;DHT22;8882;53.192;8.184;2022-09-01T06:09:17;15.00;99.90
17529;DHT22;8882;53.192;8.184;2022-09-01T06:11:44;15.00;99.90
17529;DHT22;8882;53.192;8.184;2022-09-01T06:14:12;15.00;99.90
17529;DHT22;8882;53.192;8.184;2022-09-01T06:16:38;15.00;99.90
17529;DHT22;8882;53.192;8.184;2022-09-01T06:19:04;15.00;99.90
17529;DHT22;8882;53.192;8.184;2022-09-01T06:21:30;15.10;99.90
17529;DHT22;8882;53.192;8.184;2022-09-01T06:23:56;15.10;99.90
17529;DHT22;8882;53.192;8.184;2022-09-01T06:26:29;15.10;99.90
17529;DHT22;8882;53.192;8.184;2022-09-01T06:28:57;15.20;99.90
17529;DHT22;8882;53.192;8.184;2022-09-01T06:31:25;15.20;99.90
17529;DHT22;8882;53.192;8.184;2022-09-01T06:33:53;15.20;99.90
17529;DHT22;8882;53.192;8.184;2022-09-01T06:36:20;15.20;99.90
17529;DHT22;8882;53.192;8.184;2022-09-01T06:38:47;15.30;99.90
17529;DHT22;8882;53.192;8.184;2022-09-01T06:41:12;15.40;99.90
17529;DHT22;8882;53.192;8.184;2022-09-01T06:43:39;15.40;99.90
17529;DHT22;8882;53.192;8.184;2022-09-01T06:46:08;15.30;99.90
17529;DHT22;8882;53.192;8.184;2022-09-01T06:48:37;15.40;99.90
17529;DHT22;8882;53.192;8.184;2022-09-01T06:51:15;15.50;99.90
17529;DHT22;8882;53.192;8.184;2022-09-01T06:53:42;15.70;99.90
17529;DHT22;8882;53.192;8.184;2022-09-01T06:56:09;16.00;99.90
17529;DHT22;8882;53.192;8.184;2022-09-01T06:58:39;16.40;99.90
17529;DHT22;8882;53.192;8.184;2022-09-01T07:01:09;16.60;99.90
17529;DHT22;8882;53.192;8.184;2022-09-01T07:03:40;16.90;99.90
17529;DHT22;8882;53.192;8.184;2022-09-01T07:06:06;17.00;99.90
17529;DHT22;8882;53.192;8.184;2022-09-01T07:08:32;17.30;99.90
17529;DHT22;8882;53.192;8.184;2022-09-01T07:11:06;17.40;99.90
17529;DHT22;8882;53.192;8.184;2022-09-01T07:13:34;17.50;99.90
17529;DHT22;8882;53.192;8.184;2022-09-01T07:16:01;17.50;99.90
17529;DHT22;8882;53.192;8.184;2022-09-01T07:18:30;17.70;99.90
17529;DHT22;8882;53.192;8.184;2022-09-01T07:20:56;17.80;99.90
17529;DHT22;8882;53.192;8.184;2022-09-01T07:23:21;17.80;99.90
17529;DHT22;8882;53.192;8.184;2022-09-01T07:25:50;17.90;99.90
17529;DHT22;8882;53.192;8.184;2022-09-01T07:28:20;18.00;99.90
17529;DHT22;8882;53.192;8.184;2022-09-01T07:30:49;18.10;99.90
17529;DHT22;8882;53.192;8.184;2022-09-01T07:33:17;18.20;99.90
17529;DHT22;8882;53.192;8.184;2022-09-01T07:35:45;18.40;99.90
17529;DHT22;8882;53.192;8.184;2022-09-01T07:38:11;18.30;99.90
17529;DHT22;8882;53.192;8.184;2022-09-01T07:40:39;18.40;99.90
17529;DHT22;8882;53.192;8.184;2022-09-01T07:43:06;18.40;99.90
17529;DHT22;8882;53.192;8.184;2022-09-01T07:45:36;18.50;99.90
17529;DHT22;8882;53.192;8.184;2022-09-01T07:48:05;18.50;99.90
17529;DHT22;8882;53.192;8.184;2022-09-01T07:50:33;18.70;99.90
17529;DHT22;8882;53.192;8.184;2022-09-01T07:52:59;18.60;99.90
17529;DHT22;8882;53.192;8.184;2022-09-01T07:55:26;18.70;99.90
17529;DHT22;8882;53.192;8.184;2022-09-01T07:57:52;18.90;99.90
17529;DHT22;8882;53.192;8.184;2022-09-01T08:00:18;19.00;99.90
17529;DHT22;8882;53.192;8.184;2022-09-01T08:02:46;19.00;99.90
17529;DHT22;8882;53.192;8.184;2022-09-01T08:05:15;19.10;99.90
17529;DHT22;8882;53.192;8.184;2022-09-01T08:07:47;19.20;99.90
17529;DHT22;8882;53.192;8.184;2022-09-01T08:10:13;19.40;99.90
17529;DHT22;8882;53.192;8.184;2022-09-01T08:12:39;19.40;99.90
17529;DHT22;8882;53.192;8.184;2022-09-01T08:15:06;19.50;99.90
17529;DHT22;8882;53.192;8.184;2022-09-01T08:17:33;19.40;99.90
17529;DHT22;8882;53.192;8.184;2022-09-01T08:19:59;19.60;99.90
17529;DHT22;8882;53.192;8.184;2022-09-01T08:22:25;19.60;99.90
17529;DHT22;8882;53.192;8.184;2022-09-01T08:24:51;19.70;99.90
17529;DHT22;8882;53.192;8.184;2022-09-01T08:27:17;19.80;99.90
17529;DHT22;8882;53.192;8.184;2022-09-01T08:29:43;19.80;99.90
17529;DHT22;8882;53.192;8.184;2022-09-01T08:32:09;19.90;99.90
17529;DHT22;8882;53.192;8.184;2022-09-01T08:34:36;20.10;99.90
17529;DHT22;8882;53.192;8.184;2022-09-01T08:37:03;20.10;99.90
17529;DHT22;8882;53.192;8.184;2022-09-01T08:39:29;20.20;99.90
17529;DHT22;8882;53.192;8.184;2022-09-01T08:42:32;20.20;99.90
17529;DHT22;8882;53.192;8.184;2022-09-01T08:48:15;20.20;99.90
17529;DHT22;8882;53.192;8.184;2022-09-01T08:50:44;20.40;99.90
17529;DHT22;8882;53.192;8.184;2022-09-01T08:53:33;20.50;99.90
17529;DHT22;8882;53.192;8.184;2022-09-01T08:56:00;20.70;99.90
17529;DHT22;8882;53.192;8.184;2022-09-01T08:58:29;20.80;99.90
17529;DHT22;8882;53.192;8.184;2022-09-01T09:01:02;20.90;99.90
17529;DHT22;8882;53.192;8.184;2022-09-01T09:03:39;21.00;99.90
17529;DHT22;8882;53.192;8.184;2022-09-01T09:06:24;21.00;99.90
17529;DHT22;8882;53.192;8.184;2022-09-01T09:09:03;20.90;99.90
17529;DHT22;8882;53.192;8.184;2022-09-01T09:14:54;21.10;99.90
17529;DHT22;8882;53.192;8.184;2022-09-01T09:17:24;21.20;99.90
17529;DHT22;8882;53.192;8.184;2022-09-01T09:19:52;21.30;99.90
17529;DHT22;8882;53.192;8.184;2022-09-01T09:22:19;21.40;99.90
17529;DHT22;8882;53.192;8.184;2022-09-01T09:24:59;21.50;99.90
17529;DHT22;8882;53.192;8.184;2022-09-01T09:27:33;21.60;99.90
17529;DHT22;8882;53.192;8.184;2022-09-01T09:37:45;21.90;99.90
17529;DHT22;8882;53.192;8.184;2022-09-01T09:43:00;22.10;99.90
17529;DHT22;8882;53.192;8.184;2022-09-01T09:48:25;22.10;99.90
17529;DHT22;8882;53.192;8.184;2022-09-01T09:50:51;22.10;99.90
17529;DHT22;8882;53.192;8.184;2022-09-01T09:53:28;22.30;99.90
17529;DHT22;8882;53.192;8.184;2022-09-01T09:56:08;22.50;99.90
17529;DHT22;8882;53.192;8.184;2022-09-01T09:58:41;22.40;99.90
17529;DHT22;8882;53.192;8.184;2022-09-01T10:03:49;22.30;99.90
17529;DHT22;8882;53.192;8.184;2022-09-01T10:06:43;22.20;99.90
17529;DHT22;8882;53.192;8.184;2022-09-01T10:09:33;22.00;99.90
17529;DHT22;8882;53.192;8.184;2022-09-01T10:11:59;21.90;99.90
17529;DHT22;8882;53.192;8.184;2022-09-01T10:14:34;22.10;99.90
17529;DHT22;8882;53.192;8.184;2022-09-01T10:17:10;22.10;99.90
17529;DHT22;8882;53.192;8.184;2022-09-01T10:19:50;22.30;99.90
17529;DHT22;8882;53.192;8.184;2022-09-01T10:22:16;22.30;99.90
17529;DHT22;8882;53.192;8.184;2022-09-01T10:24:42;22.30;99.90
17529;DHT22;8882;53.192;8.184;2022-09-01T10:27:21;22.50;99.90
17529;DHT22;8882;53.192;8.184;2022-09-01T10:32:38;22.10;99.90
17529;DHT22;8882;53.192;8.184;2022-09-01T10:35:10;22.20;99.90
17529;DHT22;8882;53.192;8.184;2022-09-01T10:37:38;22.50;99.90
17529;DHT22;8882;53.192;8.184;2022-09-01T10:45:51;23.00;99.90
17529;DHT22;8882;53.192;8.184;2022-09-01T10:50:48;22.90;99.90
17529;DHT22;8882;53.192;8.184;2022-09-01T10:56:17;22.70;99.90
17529;DHT22;8882;53.192;8.184;2022-09-01T11:04:17;22.80;99.90
17529;DHT22;8882;53.192;8.184;2022-09-01T11:06:58;22.80;99.90
17529;DHT22;8882;53.192;8.184;2022-09-01T11:09:32;22.90;99.90
17529;DHT22;8882;53.192;8.184;2022-09-01T11:12:41;22.90;99.90
17529;DHT22;8882;53.192;8.184;2022-09-01T11:15:06;22.90;99.90
17529;DHT22;8882;53.192;8.184;2022-09-01T11:20:35;23.30;99.90
17529;DHT22;8882;53.192;8.184;2022-09-01T11:23:27;23.20;99.90
17529;DHT22;8882;53.192;8.184;2022-09-01T11:26:00;23.40;99.90
17529;DHT22;8882;53.192;8.184;2022-09-01T11:30:58;23.30;99.90
17529;DHT22;8882;53.192;8.184;2022-09-01T11:36:05;23.30;99.90
17529;DHT22;8882;53.192;8.184;2022-09-01T11:38:42;23.30;99.90
17529;DHT22;8882;53.192;8.184;2022-09-01T11:41:19;23.30;99.90
17529;DHT22;8882;53.192;8.184;2022-09-01T11:43:47;23.10;99.90
17529;DHT22;8882;53.192;8.184;2022-09-01T11:46:24;23.00;99.90
17529;DHT22;8882;53.192;8.184;2022-09-01T11:48:51;23.10;99.90
17529;DHT22;8882;53.192;8.184;2022-09-01T11:51:17;23.10;99.90
17529;DHT22;8882;53.192;8.184;2022-09-01T11:53:43;23.30;99.90
17529;DHT22;8882;53.192;8.184;2022-09-01T11:56:18;23.30;99.90
17529;DHT22;8882;53.192;8.184;2022-09-01T11:58:45;23.30;99.90
17529;DHT22;8882;53.192;8.184;2022-09-01T12:01:13;23.30;99.90
17529;DHT22;8882;53.192;8.184;2022-09-01T12:03:39;23.30;99.90
17529;DHT22;8882;53.192;8.184;2022-09-01T12:06:07;23.30;99.90
17529;DHT22;8882;53.192;8.184;2022-09-01T12:08:40;23.30;99.90
17529;DHT22;8882;53.192;8.184;2022-09-01T12:11:19;23.40;99.90
17529;DHT22;8882;53.192;8.184;2022-09-01T12:16:26;23.40;99.90
17529;DHT22;8882;53.192;8.184;2022-09-01T12:18:54;23.20;99.90
17529;DHT22;8882;53.192;8.184;2022-09-01T12:21:30;23.40;99.90
17529;DHT22;8882;53.192;8.184;2022-09-01T12:24:17;23.50;99.90
17529;DHT22;8882;53.192;8.184;2022-09-01T12:26:45;23.60;99.90
17529;DHT22;8882;53.192;8.184;2022-09-01T12:29:11;23.60;99.90
17529;DHT22;8882;53.192;8.184;2022-09-01T12:31:40;23.70;99.90
17529;DHT22;8882;53.192;8.184;2022-09-01T12:34:27;23.70;99.90
17529;DHT22;8882;53.192;8.184;2022-09-01T12:47:06;23.90;99.90
17529;DHT22;8882;53.192;8.184;2022-09-01T12:49:44;23.80;99.90
17529;DHT22;8882;53.192;8.184;2022-09-01T12:52:16;23.80;99.90
17529;DHT22;8882;53.192;8.184;2022-09-01T12:55:09;23.90;99.90
17529;DHT22;8882;53.192;8.184;2022-09-01T12:57:45;24.00;99.90
17529;DHT22;8882;53.192;8.184;2022-09-01T13:00:17;23.80;99.90
17529;DHT22;8882;53.192;8.184;2022-09-01T13:02:49;23.80;99.90
17529;DHT22;8882;53.192;8.184;2022-09-01T13:05:28;23.90;99.90
17529;DHT22;8882;53.192;8.184;2022-09-01T13:07:56;24.00;99.90
17529;DHT22;8882;53.192;8.184;2022-09-01T13:10:24;24.10;99.90
17529;DHT22;8882;53.192;8.184;2022-09-01T13:12:52;24.20;99.90
17529;DHT22;8882;53.192;8.184;2022-09-01T13:15:18;24.20;99.90
17529;DHT22;8882;53.192;8.184;2022-09-01T13:17:44;24.20;99.90
17529;DHT22;8882;53.192;8.184;2022-09-01T13:20:10;24.20;99.90
17529;DHT22;8882;53.192;8.184;2022-09-01T13:22:36;24.20;99.90
17529;DHT22;8882;53.192;8.184;2022-09-01T13:25:03;24.20;99.90
17529;DHT22;8882;53.192;8.184;2022-09-01T13:27:29;23.90;99.90
17529;DHT22;8882;53.192;8.184;2022-09-01T13:29:54;23.80;99.90
17529;DHT22;8882;53.192;8.184;2022-09-01T13:32:20;23.80;99.90
17529;DHT22;8882;53.192;8.184;2022-09-01T13:34:48;23.70;99.90
17529;DHT22;8882;53.192;8.184;2022-09-01T13:37:13;23.70;99.90
17529;DHT22;8882;53.192;8.184;2022-09-01T13:39:39;23.70;99.90
17529;DHT22;8882;53.192;8.184;2022-09-01T13:42:05;23.70;99.90
17529;DHT22;8882;53.192;8.184;2022-09-01T13:44:30;23.80;99.90
17529;DHT22;8882;53.192;8.184;2022-09-01T13:46:56;23.70;99.90
17529;DHT22;8882;53.192;8.184;2022-09-01T13:49:22;23.70;99.90
17529;DHT22;8882;53.192;8.184;2022-09-01T13:51:51;23.70;99.90
17529;DHT22;8882;53.192;8.184;2022-09-01T13:54:17;23.80;99.90
17529;DHT22;8882;53.192;8.184;2022-09-01T13:56:42;23.60;99.90
17529;DHT22;8882;53.192;8.184;2022-09-01T13:59:08;23.50;99.90
17529;DHT22;8882;53.192;8.184;2022-09-01T14:01:34;23.60;99.90
17529;DHT22;8882;53.192;8.184;2022-09-01T14:03:59;23.70;99.90
17529;DHT22;8882;53.192;8.184;2022-09-01T14:06:25;23.70;99.90
17529;DHT22;8882;53.192;8.184;2022-09-01T14:08:50;23.70;99.90
17529;DHT22;8882;53.192;8.184;2022-09-01T14:11:17;23.70;99.90
17529;DHT22;8882;53.192;8.184;2022-09-01T14:13:44;23.50;99.90
17529;DHT22;8882;53.192;8.184;2022-09-01T14:16:11;23.50;99.90
17529;DHT22;8882;53.192;8.184;2022-09-01T14:18:37;23.30;99.90
17529;DHT22;8882;53.192;8.184;2022-09-01T14:21:03;23.40;99.90
17529;DHT22;8882;53.192;8.184;2022-09-01T14:23:29;23.40;99.90
17529;DHT22;8882;53.192;8.184;2022-09-01T14:25:55;23.40;99.90
17529;DHT22;8882;53.192;8.184;2022-09-01T14:28:21;23.30;99.90
17529;DHT22;8882;53.192;8.184;2022-09-01T14:30:48;23.10;99.90
17529;DHT22;8882;53.192;8.184;2022-09-01T14:33:14;23.10;99.90
17529;DHT22;8882;53.192;8.184;2022-09-01T14:35:43;23.10;99.90
17529;DHT22;8882;53.192;8.184;2022-09-01T14:38:10;23.30;99.90
17529;DHT22;8882;53.192;8.184;2022-09-01T14:40:37;23.30;99.90
17529;DHT22;8882;53.192;8.184;2022-09-01T14:43:08;23.30;99.90
17529;DHT22;8882;53.192;8.184;2022-09-01T14:45:34;23.20;99.90
17529;DHT22;8882;53.192;8.184;2022-09-01T14:48:02;23.10;99.90
17529;DHT22;8882;53.192;8.184;2022-09-01T14:50:29;23.20;99.90
17529;DHT22;8882;53.192;8.184;2022-09-01T14:53:00;23.10;99.90
17529;DHT22;8882;53.192;8.184;2022-09-01T14:55:27;23.10;99.90
17529;DHT22;8882;53.192;8.184;2022-09-01T14:57:53;23.10;99.90
17529;DHT22;8882;53.192;8.184;2022-09-01T15:00:20;23.10;99.90
17529;DHT22;8882;53.192;8.184;2022-09-01T15:02:46;23.10;99.90
17529;DHT22;8882;53.192;8.184;2022-09-01T15:05:12;23.10;99.90
17529;DHT22;8882;53.192;8.184;2022-09-01T15:07:39;23.00;99.90
17529;DHT22;8882;53.192;8.184;2022-09-01T15:10:07;23.00;99.90
17529;DHT22;8882;53.192;8.184;2022-09-01T15:12:33;22.90;99.90
17529;DHT22;8882;53.192;8.184;2022-09-01T15:14:59;22.80;99.90
17529;DHT22;8882;53.192;8.184;2022-09-01T15:17:28;22.80;99.90
17529;DHT22;8882;53.192;8.184;2022-09-01T15:19:53;22.80;99.90
17529;DHT22;8882;53.192;8.184;2022-09-01T15:22:19;22.80;99.90
17529;DHT22;8882;53.192;8.184;2022-09-01T15:24:45;22.90;99.90
17529;DHT22;8882;53.192;8.184;2022-09-01T15:27:11;22.80;99.90
17529;DHT22;8882;53.192;8.184;2022-09-01T15:29:37;22.90;99.90
17529;DHT22;8882;53.192;8.184;2022-09-01T15:32:11;22.90;99.90
17529;DHT22;8882;53.192;8.184;2022-09-01T15:34:37;22.90;99.90
17529;DHT22;8882;53.192;8.184;2022-09-01T15:37:03;22.90;99.90
17529;DHT22;8882;53.192;8.184;2022-09-01T15:39:29;22.90;99.90
17529;DHT22;8882;53.192;8.184;2022-09-01T15:41:55;22.80;99.90
17529;DHT22;8882;53.192;8.184;2022-09-01T15:44:21;22.80;99.90
17529;DHT22;8882;53.192;8.184;2022-09-01T15:46:47;22.80;99.90
17529;DHT22;8882;53.192;8.184;2022-09-01T15:49:12;22.80;99.90
17529;DHT22;8882;53.192;8.184;2022-09-01T15:51:40;22.80;99.90
17529;DHT22;8882;53.192;8.184;2022-09-01T15:54:15;22.70;99.90
17529;DHT22;8882;53.192;8.184;2022-09-01T15:56:43;22.60;99.90
17529;DHT22;8882;53.192;8.184;2022-09-01T15:59:10;22.60;99.90
17529;DHT22;8882;53.192;8.184;2022-09-01T16:01:40;22.60;99.90
17529;DHT22;8882;53.192;8.184;2022-09-01T16:04:08;22.70;99.90
17529;DHT22;8882;53.192;8.184;2022-09-01T16:06:36;22.70;99.90
17529;DHT22;8882;53.192;8.184;2022-09-01T16:09:02;22.70;99.90
17529;DHT22;8882;53.192;8.184;2022-09-01T16:11:27;22.70;99.90
17529;DHT22;8882;53.192;8.184;2022-09-01T16:13:54;22.80;99.90
17529;DHT22;8882;53.192;8.184;2022-09-01T16:24:53;22.70;99.90
17529;DHT22;8882;53.192;8.184;2022-09-01T16:27:34;22.70;99.90
17529;DHT22;8882;53.192;8.184;2022-09-01T16:30:11;22.70;99.90
17529;DHT22;8882;53.192;8.184;2022-09-01T16:32:41;22.60;99.90
17529;DHT22;8882;53.192;8.184;2022-09-01T16:35:08;22.60;99.90
17529;DHT22;8882;53.192;8.184;2022-09-01T16:43:07;22.50;99.90
17529;DHT22;8882;53.192;8.184;2022-09-01T16:51:11;22.40;99.90
17529;DHT22;8882;53.192;8.184;2022-09-01T16:57:02;22.30;99.90
17529;DHT22;8882;53.192;8.184;2022-09-01T16:59:44;22.30;99.90
17529;DHT22;8882;53.192;8.184;2022-09-01T17:05:09;22.20;99.90
17529;DHT22;8882;53.192;8.184;2022-09-01T17:07:51;22.20;99.90
17529;DHT22;8882;53.192;8.184;2022-09-01T17:10:34;22.10;99.90
17529;DHT22;8882;53.192;8.184;2022-09-01T17:13:14;22.10;99.90
17529;DHT22;8882;53.192;8.184;2022-09-01T17:15:42;22.10;99.90
17529;DHT22;8882;53.192;8.184;2022-09-01T17:18:29;22.10;99.90
17529;DHT22;8882;53.192;8.184;2022-09-01T17:26:27;21.90;99.90
17529;DHT22;8882;53.192;8.184;2022-09-01T17:29:16;21.80;99.90
17529;DHT22;8882;53.192;8.184;2022-09-01T17:32:51;21.80;99.90
17529;DHT22;8882;53.192;8.184;2022-09-01T17:35:02;21.70;99.90
17529;DHT22;8882;53.192;8.184;2022-09-01T17:40:49;21.60;99.90
17529;DHT22;8882;53.192;8.184;2022-09-01T17:43:27;21.50;99.90
17529;DHT22;8882;53.192;8.184;2022-09-01T17:51:04;21.30;99.90
17529;DHT22;8882;53.192;8.184;2022-09-01T17:53:42;21.30;99.90
17529;DHT22;8882;53.192;8.184;2022-09-01T17:56:37;21.20;99.90
17529;DHT22;8882;53.192;8.184;2022-09-01T17:59:18;21.20;99.90
17529;DHT22;8882;53.192;8.184;2022-09-01T18:05:11;21.10;99.90
17529;DHT22;8882;53.192;8.184;2022-09-01T18:10:14;21.00;99.90
17529;DHT22;8882;53.192;8.184;2022-09-01T18:12:40;21.00;99.90
17529;DHT22;8882;53.192;8.184;2022-09-01T18:15:10;20.90;99.90
17529;DHT22;8882;53.192;8.184;2022-09-01T18:17:43;20.90;99.90
17529;DHT22;8882;53.192;8.184;2022-09-01T18:20:17;20.80;99.90
17529;DHT22;8882;53.192;8.184;2022-09-01T18:22:49;20.70;99.90
17529;DHT22;8882;53.192;8.184;2022-09-01T18:25:21;20.70;99.90
17529;DHT22;8882;53.192;8.184;2022-09-01T18:27:47;20.60;99.90
17529;DHT22;8882;53.192;8.184;2022-09-01T18:30:16;20.60;99.90
17529;DHT22;8882;53.192;8.184;2022-09-01T18:33:05;20.50;99.90
17529;DHT22;8882;53.192;8.184;2022-09-01T18:35:44;20.40;99.90
17529;DHT22;8882;53.192;8.184;2022-09-01T18:41:23;20.30;99.90
17529;DHT22;8882;53.192;8.184;2022-09-01T18:43:53;20.20;99.90
17529;DHT22;8882;53.192;8.184;2022-09-01T18:51:52;19.90;99.90
17529;DHT22;8882;53.192;8.184;2022-09-01T18:54:28;19.90;99.90
17529;DHT22;8882;53.192;8.184;2022-09-01T18:57:06;19.80;99.90
17529;DHT22;8882;53.192;8.184;2022-09-01T19:00:03;19.70;99.90
17529;DHT22;8882;53.192;8.184;2022-09-01T19:12:20;19.60;99.90
17529;DHT22;8882;53.192;8.184;2022-09-01T19:15:02;19.50;99.90
17529;DHT22;8882;53.192;8.184;2022-09-01T19:21:05;19.40;99.90
17529;DHT22;8882;53.192;8.184;2022-09-01T19:23:47;19.30;99.90
17529;DHT22;8882;53.192;8.184;2022-09-01T19:26:23;19.20;99.90
17529;DHT22;8882;53.192;8.184;2022-09-01T19:28:59;19.20;99.90
17529;DHT22;8882;53.192;8.184;2022-09-01T19:34:12;19.10;99.90
17529;DHT22;8882;53.192;8.184;2022-09-01T19:36:52;19.10;99.90
17529;DHT22;8882;53.192;8.184;2022-09-01T19:39:22;19.00;99.90
17529;DHT22;8882;53.192;8.184;2022-09-01T19:42:18;19.00;99.90
17529;DHT22;8882;53.192;8.184;2022-09-01T19:45:10;19.00;99.90
17529;DHT22;8882;53.192;8.184;2022-09-01T19:48:06;19.00;99.90
17529;DHT22;8882;53.192;8.184;2022-09-01T19:50:53;18.90;99.90
17529;DHT22;8882;53.192;8.184;2022-09-01T19:56:12;18.80;99.90
17529;DHT22;8882;53.192;8.184;2022-09-01T19:58:49;18.80;99.90
17529;DHT22;8882;53.192;8.184;2022-09-01T20:01:35;18.70;99.90
17529;DHT22;8882;53.192;8.184;2022-09-01T20:04:09;18.70;99.90
17529;DHT22;8882;53.192;8.184;2022-09-01T20:06:42;18.70;99.90
17529;DHT22;8882;53.192;8.184;2022-09-01T20:11:59;18.60;99.90
17529;DHT22;8882;53.192;8.184;2022-09-01T20:15:02;18.60;99.90
17529;DHT22;8882;53.192;8.184;2022-09-01T20:17:42;18.50;99.90
17529;DHT22;8882;53.192;8.184;2022-09-01T20:20:14;18.50;99.90
17529;DHT22;8882;53.192;8.184;2022-09-01T20:25:09;18.40;99.90
17529;DHT22;8882;53.192;8.184;2022-09-01T20:27:46;18.40;99.90
17529;DHT22;8882;53.192;8.184;2022-09-01T20:30:21;18.30;99.90
17529;DHT22;8882;53.192;8.184;2022-09-01T20:32:58;18.30;99.90
17529;DHT22;8882;53.192;8.184;2022-09-01T20:35:44;18.30;99.90
17529;DHT22;8882;53.192;8.184;2022-09-01T20:38:23;18.20;99.90
17529;DHT22;8882;53.192;8.184;2022-09-01T20:41:39;18.20;99.90
17529;DHT22;8882;53.192;8.184;2022-09-01T20:44:20;18.20;99.90
17529;DHT22;8882;53.192;8.184;2022-09-01T20:46:50;18.00;99.90
